首页
METAR-TAF:

METAR-TAF

机场 :

索菲亞機場

索菲亞, 保加利亚

纬度: 42-39N, 经度: 023-23E, 海拔: 586米

当前天气观测

该预报发布于22分钟前的20:30 UTC
风速5节,风向南转南东,在东转东南之间变化
温度 24°C
湿度 47%
气压 1022 hPa
能见度10公里或以上
1500米以下无云,无积雨云

METAR: LBSF 222030Z 16005KT 120V180 CAVOK 24/12 Q1022 NOSIG

时间: 23:52 (20:52 UTC)

预报

该预报发布于3小时和52分钟前的17:00 UTC
预报有效从22日的 18点(UTC)到 23日的 18点(UTC)
风速10节,风向东北
能见度10公里或以上
1500米以下无云,无积雨云
成为
从 22日的 18点(UTC)到 22日的 20点(UTC)
风速4节,风向多变
成为
从 23日的 09点(UTC)到 23日的 11点(UTC)
风速12节,风向东北

TAF: LBSF 221700Z 2218/2318 05010KT CAVOK BECMG 2218/2220 VRB04KT BECMG 2309/2311 05012KT

超过4000个机场的气象观测和天气预报(METAR&TAF报告)。

可查询的气象台以黄色和红色小点在地图上表示。

将鼠标移到小点上方,可查看气象台名称。

然后点击查看天气观测和预报。

如需切换地图:点击带黑十字的绿色按钮放大地图;点击带横线的绿色按钮缩小地图;或者点击绿色箭头查看邻近地区的地图。


METAR-TAF: